createdAt,value
2023-01-27T00:04:17.004Z,100783.92
2023-01-27T00:09:20.273Z,100781.68
2023-01-27T00:14:23.743Z,100777.98
2023-01-27T00:19:27.251Z,100779.94
2023-01-27T00:24:36.765Z,100783.08
2023-01-27T00:29:41.045Z,100784.36
2023-01-27T00:34:44.118Z,100787.10
2023-01-27T00:39:47.417Z,100789.81
2023-01-27T00:45:09.396Z,100789.19
2023-01-27T00:50:13.021Z,100791.17
2023-01-27T00:55:18.705Z,100793.15
2023-01-27T01:00:22.063Z,100790.42
2023-01-27T01:05:28.697Z,100789.50
2023-01-27T01:10:32.136Z,100789.39
2023-01-27T01:15:36.959Z,100791.00
2023-01-27T01:20:45.412Z,100794.95
2023-01-27T01:26:05.774Z,100790.57
2023-01-27T01:31:12.651Z,100791.92
2023-01-27T01:36:18.952Z,100789.01
2023-01-27T01:41:23.364Z,100791.02
2023-01-27T01:46:26.740Z,100790.95
2023-01-27T01:51:35.324Z,100787.08
2023-01-27T01:56:44.220Z,100793.64
2023-01-27T02:01:47.999Z,100796.11
2023-01-27T02:07:01.840Z,100791.71
2023-01-27T02:12:05.781Z,100791.75
2023-01-27T02:17:13.527Z,100788.98
2023-01-27T02:22:43.378Z,100791.08
2023-01-27T02:27:46.618Z,100792.26
2023-01-27T02:32:49.739Z,100793.77
2023-01-27T02:37:53.079Z,100798.29
2023-01-27T02:42:57.898Z,100800.57
2023-01-27T02:48:01.146Z,100797.69
2023-01-27T02:53:04.853Z,100796.43
2023-01-27T02:58:08.219Z,100801.91
2023-01-27T03:03:21.496Z,100796.59
2023-01-27T03:08:24.896Z,100794.60
2023-01-27T03:13:29.011Z,100798.83
2023-01-27T03:18:32.056Z,100798.32
2023-01-27T03:23:35.992Z,100797.73
2023-01-27T03:28:39.867Z,100800.55
2023-01-27T03:33:48.970Z,100800.39
2023-01-27T03:39:21.428Z,100799.14
2023-01-27T03:44:43.357Z,100800.52
2023-01-27T03:49:47.114Z,100804.25
2023-01-27T03:54:50.558Z,100804.52
2023-01-27T03:59:53.909Z,100803.72
2023-01-27T04:05:15.830Z,100811.27
2023-01-27T04:10:19.170Z,100812.84
2023-01-27T04:15:22.808Z,100815.42
2023-01-27T04:20:26.048Z,100816.46
2023-01-27T04:25:29.252Z,100822.66
2023-01-27T04:30:32.645Z,100825.20
2023-01-27T04:35:39.009Z,100827.14
2023-01-27T04:40:42.832Z,100831.36
2023-01-27T04:45:46.340Z,100829.84
2023-01-27T04:50:52.174Z,100827.35
2023-01-27T04:56:02.186Z,100823.33
2023-01-27T05:01:05.283Z,100832.33
2023-01-27T05:06:10.943Z,100833.63
2023-01-27T05:11:14.669Z,100839.48
2023-01-27T05:16:21.436Z,100846.36
2023-01-27T05:21:31.126Z,100846.17
2023-01-27T05:26:34.250Z,100855.82
2023-01-27T05:31:37.487Z,100859.90
2023-01-27T05:36:44.034Z,100862.50
2023-01-27T05:41:47.605Z,100867.05
2023-01-27T05:46:50.829Z,100867.69
2023-01-27T05:51:54.034Z,100869.79
2023-01-27T05:56:57.297Z,100865.22
2023-01-27T06:02:00.475Z,100866.08
2023-01-27T06:07:03.814Z,100869.81
2023-01-27T06:12:07.156Z,100876.27
2023-01-27T06:17:10.302Z,100885.63
2023-01-27T06:22:13.534Z,100892.71
2023-01-27T06:27:16.867Z,100895.89
2023-01-27T06:32:20.045Z,100907.05
2023-01-27T06:37:23.281Z,100908.49
2023-01-27T06:42:26.455Z,100914.76
2023-01-27T06:47:29.630Z,100918.55
2023-01-27T06:52:32.809Z,100920.19
2023-01-27T06:57:36.126Z,100922.64
2023-01-27T07:02:39.353Z,100923.54
2023-01-27T07:07:42.742Z,100924.62
2023-01-27T07:12:46.811Z,100923.83
2023-01-27T07:17:49.846Z,100925.25
2023-01-27T07:22:52.949Z,100929.05
2023-01-27T07:28:00.135Z,100928.16
2023-01-27T07:33:10.399Z,100931.33
2023-01-27T07:38:13.602Z,100930.14
2023-01-27T07:43:16.904Z,100932.43
2023-01-27T07:48:20.790Z,100936.65
2023-01-27T07:53:24.044Z,100932.55
2023-01-27T07:58:27.318Z,100938.53
2023-01-27T08:03:31.758Z,100933.97
2023-01-27T08:08:38.964Z,100934.62
2023-01-27T08:13:42.537Z,100933.69
2023-01-27T08:18:45.799Z,100935.25
2023-01-27T08:23:49.286Z,100939.59
2023-01-27T08:28:52.526Z,100937.23
2023-01-27T08:33:55.688Z,100939.96
2023-01-27T08:38:59.156Z,100939.92
2023-01-27T08:44:02.518Z,100947.20
2023-01-27T08:49:05.825Z,100954.56
2023-01-27T08:54:09.958Z,100951.66
2023-01-27T08:59:13.542Z,100954.96
2023-01-27T09:04:48.209Z,100957.26
2023-01-27T09:10:01.048Z,100962.38
2023-01-27T09:15:13.026Z,100966.36
2023-01-27T09:20:16.466Z,100964.54
2023-01-27T09:25:20.056Z,100963.01
2023-01-27T09:30:25.424Z,100963.14
2023-01-27T09:35:38.232Z,100963.93
2023-01-27T09:40:50.497Z,100959.80
2023-01-27T09:46:16.865Z,100960.42
2023-01-27T09:51:30.237Z,100955.67
2023-01-27T09:56:57.073Z,100955.95
2023-01-27T10:02:28.075Z,100951.71
2023-01-27T10:07:55.824Z,100956.88
2023-01-27T10:13:11.661Z,100960.42
2023-01-27T10:18:37.103Z,100960.79
2023-01-27T10:24:08.843Z,100968.24
2023-01-27T10:29:37.115Z,100970.96
2023-01-27T10:34:51.948Z,100973.54
2023-01-27T10:40:21.224Z,100975.10
2023-01-27T10:45:37.880Z,100973.88
2023-01-27T10:50:49.208Z,100983.52
2023-01-27T10:56:10.185Z,100983.41
2023-01-27T11:01:21.474Z,100988.71
2023-01-27T11:06:30.815Z,100986.84
2023-01-27T11:11:46.957Z,100980.96
2023-01-27T11:16:54.397Z,100972.45
2023-01-27T11:22:07.685Z,100970.21
2023-01-27T11:27:22.897Z,100964.09
2023-01-27T11:32:40.774Z,100959.88
2023-01-27T11:37:53.719Z,100958.38
2023-01-27T11:42:59.755Z,100958.16
2023-01-27T11:48:12.687Z,100954.66
2023-01-27T11:53:40.072Z,100952.29
2023-01-27T11:58:57.005Z,100953.96
2023-01-27T12:04:07.363Z,100955.09
2023-01-27T12:09:30.826Z,100952.75
2023-01-27T12:14:33.928Z,100952.84
2023-01-27T12:19:42.905Z,100954.70
2023-01-27T12:24:54.448Z,100953.87
2023-01-27T12:30:08.496Z,100952.77
2023-01-27T12:35:20.965Z,100951.59
2023-01-27T12:40:27.823Z,100954.12
2023-01-27T12:45:38.271Z,100954.94
2023-01-27T12:50:50.693Z,100959.83
2023-01-27T12:55:56.965Z,100965.51
2023-01-27T13:01:07.677Z,100967.85
2023-01-27T13:06:27.609Z,100968.65
2023-01-27T13:11:39.298Z,100960.96
2023-01-27T13:16:42.564Z,100954.05
2023-01-27T13:21:50.714Z,100949.06
2023-01-27T13:26:57.970Z,100951.11
2023-01-27T13:32:19.382Z,100959.73
2023-01-27T13:37:44.064Z,100960.39
2023-01-27T13:43:20.021Z,100962.86
2023-01-27T13:48:35.389Z,100971.08
2023-01-27T13:53:39.482Z,100973.13
2023-01-27T13:59:13.713Z,100976.40
2023-01-27T14:04:44.719Z,100980.16
2023-01-27T14:10:13.900Z,100987.04
2023-01-27T14:15:43.350Z,100983.08
2023-01-27T14:21:11.504Z,100983.05
2023-01-27T14:26:29.144Z,100986.98
2023-01-27T14:32:21.244Z,100983.13
2023-01-27T14:37:46.109Z,100988.99
2023-01-27T14:43:13.524Z,100989.46
2023-01-27T14:48:35.584Z,100986.21
2023-01-27T14:53:47.473Z,100985.23
2023-01-27T14:59:12.214Z,100992.04
2023-01-27T15:04:44.378Z,100993.86
2023-01-27T15:10:12.462Z,100992.19
2023-01-27T15:15:34.958Z,100993.79
2023-01-27T15:21:04.706Z,100987.44
2023-01-27T15:26:09.874Z,100987.85
2023-01-27T15:31:19.282Z,100989.83
2023-01-27T15:36:28.433Z,100997.40
2023-01-27T15:41:34.610Z,101006.94
2023-01-27T15:46:50.973Z,101009.87
2023-01-27T15:52:07.986Z,101012.60
2023-01-27T15:57:24.345Z,101017.44
2023-01-27T16:02:54.494Z,101010.23
2023-01-27T16:08:18.983Z,101016.41
2023-01-27T16:13:27.006Z,101025.80
2023-01-27T16:18:57.104Z,101023.89
2023-01-27T16:24:08.395Z,101027.61
2023-01-27T16:29:19.494Z,101033.73
2023-01-27T16:34:33.400Z,101034.09
2023-01-27T16:40:07.300Z,101029.69
2023-01-27T16:45:21.496Z,101031.39
2023-01-27T16:50:40.765Z,101040.02
2023-01-27T16:55:57.544Z,101041.15
2023-01-27T17:01:01.923Z,101040.41
2023-01-27T17:06:28.971Z,101041.39
2023-01-27T17:11:58.031Z,101042.23
2023-01-27T17:17:18.727Z,101044.01
2023-01-27T17:22:38.197Z,101044.29
2023-01-27T17:27:46.596Z,101045.58
2023-01-27T17:33:01.500Z,101052.15
2023-01-27T17:38:25.401Z,101054.38
2023-01-27T17:43:35.118Z,101052.14
2023-01-27T17:48:42.195Z,101052.17
2023-01-27T17:53:45.650Z,101056.54
2023-01-27T17:58:53.441Z,101058.67
2023-01-27T18:04:00.792Z,101059.66
2023-01-27T18:09:17.704Z,101064.14
2023-01-27T18:14:21.860Z,101067.86
2023-01-27T18:19:25.818Z,101064.41
2023-01-27T18:24:29.212Z,101070.52
2023-01-27T18:29:37.453Z,101072.45
2023-01-27T18:34:50.584Z,101074.03
2023-01-27T18:39:54.693Z,101077.50
2023-01-27T18:45:00.838Z,101080.04
2023-01-27T18:50:13.460Z,101088.27
2023-01-27T18:55:25.710Z,101095.20
2023-01-27T19:00:37.975Z,101094.05
2023-01-27T19:05:41.579Z,101102.45
2023-01-27T19:10:46.697Z,101112.10
2023-01-27T19:15:58.366Z,101112.61
2023-01-27T19:21:02.517Z,101113.11
2023-01-27T19:26:14.358Z,101117.92
2023-01-27T19:31:21.502Z,101117.55
2023-01-27T19:36:45.984Z,101126.33
2023-01-27T19:41:49.538Z,101136.13
2023-01-27T19:46:53.213Z,101136.11
2023-01-27T19:51:56.435Z,101136.85
2023-01-27T19:56:59.834Z,101134.82
2023-01-27T20:02:03.179Z,101137.62
2023-01-27T20:07:06.808Z,101139.29
2023-01-27T20:12:15.147Z,101146.30
2023-01-27T20:17:20.009Z,101152.92
2023-01-27T20:22:26.161Z,101161.77
2023-01-27T20:27:30.115Z,101168.06
2023-01-27T20:32:33.279Z,101167.30
2023-01-27T20:37:36.499Z,101171.09
2023-01-27T20:42:39.768Z,101168.65
2023-01-27T20:47:43.117Z,101167.02
2023-01-27T20:52:48.529Z,101170.73
2023-01-27T20:57:54.873Z,101167.73
2023-01-27T21:02:58.103Z,101169.52
2023-01-27T21:08:01.586Z,101174.81
2023-01-27T21:13:04.982Z,101170.66
2023-01-27T21:18:08.244Z,101166.43
2023-01-27T21:23:11.778Z,101165.30
2023-01-27T21:28:15.273Z,101166.96
2023-01-27T21:33:18.437Z,101168.73
2023-01-27T21:38:21.591Z,101168.29
2023-01-27T21:43:43.898Z,101168.23
2023-01-27T21:48:47.912Z,101166.29
2023-01-27T21:53:51.056Z,101159.36
2023-01-27T21:58:54.294Z,101155.27
2023-01-27T22:03:57.483Z,101153.54
2023-01-27T22:09:00.791Z,101144.05
2023-01-27T22:14:04.185Z,101142.52
2023-01-27T22:19:07.380Z,101145.50
2023-01-27T22:24:10.543Z,101139.30
2023-01-27T22:29:28.743Z,101142.20
2023-01-27T22:34:44.700Z,101144.92
2023-01-27T22:39:47.859Z,101148.28
2023-01-27T22:44:52.424Z,101142.89
2023-01-27T22:49:55.524Z,101134.45
2023-01-27T22:54:58.902Z,101136.52
2023-01-27T23:00:02.324Z,101133.33
2023-01-27T23:05:06.139Z,101130.42
2023-01-27T23:10:11.205Z,101124.61
2023-01-27T23:15:15.034Z,101131.17
2023-01-27T23:20:18.618Z,101127.27
2023-01-27T23:25:22.246Z,101126.61
2023-01-27T23:30:26.839Z,101127.58
2023-01-27T23:35:30.095Z,101119.58
2023-01-27T23:40:33.977Z,101121.30
2023-01-27T23:45:37.271Z,101124.30
2023-01-27T23:50:40.399Z,101123.33
2023-01-27T23:55:43.988Z,101125.83
